createdAt,value
2019-02-08T00:01:22.152Z,62.23
2019-02-08T00:03:50.988Z,69.47
2019-02-08T00:06:20.144Z,46.50
2019-02-08T00:08:49.158Z,50.08
2019-02-08T00:11:18.137Z,40.50
2019-02-08T00:13:47.165Z,62.27
2019-02-08T00:16:16.107Z,52.85
2019-02-08T00:18:45.428Z,51.37
2019-02-08T00:21:14.783Z,63.52
2019-02-08T00:23:43.972Z,57.33
2019-02-08T00:26:13.313Z,71.97
2019-02-08T00:28:43.112Z,50.83
2019-02-08T00:31:12.287Z,51.60
2019-02-08T00:33:41.439Z,59.10
2019-02-08T00:36:10.403Z,57.88
2019-02-08T00:38:39.712Z,61.33
2019-02-08T00:41:08.673Z,45.35
2019-02-08T00:43:37.975Z,53.68
2019-02-08T00:46:07.101Z,56.60
2019-02-08T00:48:36.075Z,57.27
2019-02-08T00:51:05.690Z,60.80
2019-02-08T00:53:34.512Z,53.80
2019-02-08T00:56:04.564Z,58.68
2019-02-08T00:58:33.438Z,63.78
2019-02-08T01:01:04.173Z,46.63
2019-02-08T01:03:33.599Z,45.35
2019-02-08T01:06:02.850Z,59.88
2019-02-08T01:08:31.656Z,56.02
2019-02-08T01:11:00.479Z,47.60
2019-02-08T01:13:29.373Z,57.48
2019-02-08T01:15:58.414Z,51.35
2019-02-08T01:18:28.181Z,67.55
2019-02-08T01:20:57.069Z,57.30
2019-02-08T01:23:26.571Z,91.05
2019-02-08T01:25:56.063Z,54.25
2019-02-08T01:28:24.892Z,51.40
2019-02-08T01:30:54.532Z,68.95
2019-02-08T01:33:23.428Z,54.60
2019-02-08T01:35:52.325Z,53.28
2019-02-08T01:38:21.278Z,75.05
2019-02-08T01:40:50.196Z,46.90
2019-02-08T01:43:18.962Z,66.85
2019-02-08T01:45:47.975Z,63.95
2019-02-08T01:48:16.838Z,72.97
2019-02-08T01:50:55.827Z,58.83
2019-02-08T01:53:24.780Z,68.40
2019-02-08T01:55:53.654Z,64.32
2019-02-08T01:58:22.646Z,71.65
2019-02-08T02:00:58.732Z,56.35
2019-02-08T02:03:27.674Z,53.98
2019-02-08T02:05:56.604Z,52.38
2019-02-08T02:08:25.859Z,52.35
2019-02-08T02:10:55.811Z,48.42
2019-02-08T02:13:24.638Z,56.60
2019-02-08T02:15:53.403Z,80.38
2019-02-08T02:18:22.892Z,47.75
2019-02-08T02:20:51.759Z,63.10
2019-02-08T02:23:20.941Z,62.25
2019-02-08T02:25:51.377Z,47.05
2019-02-08T02:28:21.274Z,50.28
2019-02-08T02:30:50.115Z,51.68
2019-02-08T02:33:20.896Z,52.35
2019-02-08T02:35:49.865Z,63.00
2019-02-08T02:38:19.029Z,60.83
2019-02-08T02:40:47.959Z,48.58
2019-02-08T02:43:16.780Z,49.05
2019-02-08T02:45:45.913Z,56.10
2019-02-08T02:48:15.177Z,52.78
2019-02-08T02:50:44.462Z,71.35
2019-02-08T02:53:13.288Z,78.62
2019-02-08T02:55:42.346Z,55.88
2019-02-08T02:58:11.797Z,71.37
2019-02-08T03:00:45.897Z,71.50
2019-02-08T03:03:16.998Z,52.35
2019-02-08T03:05:46.419Z,70.83
2019-02-08T03:08:16.667Z,53.73
2019-02-08T03:10:46.218Z,50.85
2019-02-08T03:13:15.198Z,62.60
2019-02-08T03:15:45.077Z,57.50
2019-02-08T03:18:14.106Z,53.92
2019-02-08T03:20:43.288Z,56.08
2019-02-08T03:23:12.567Z,56.88
2019-02-08T03:25:42.255Z,58.30
2019-02-08T03:28:11.311Z,59.48
2019-02-08T03:30:44.501Z,55.05
2019-02-08T03:33:13.307Z,68.72
2019-02-08T03:35:42.174Z,46.40
2019-02-08T03:38:11.486Z,42.50
2019-02-08T03:40:40.430Z,51.70
2019-02-08T03:43:09.540Z,62.20
2019-02-08T03:45:40.631Z,41.83
2019-02-08T03:48:10.019Z,52.23
2019-02-08T03:50:39.218Z,52.38
2019-02-08T03:53:08.813Z,47.43
2019-02-08T03:55:39.404Z,44.55
2019-02-08T03:58:10.103Z,53.90
2019-02-08T04:00:58.656Z,52.00
2019-02-08T04:03:27.884Z,51.50
2019-02-08T04:05:57.956Z,33.10
2019-02-08T04:08:27.027Z,36.88
2019-02-08T04:10:56.200Z,38.17
2019-02-08T04:13:25.351Z,28.47
2019-02-08T04:15:55.226Z,42.95
2019-02-08T04:18:24.622Z,62.00
2019-02-08T04:20:53.694Z,50.38
2019-02-08T04:23:22.729Z,40.33
2019-02-08T04:25:51.988Z,54.13
2019-02-08T04:28:20.944Z,38.73
2019-02-08T04:30:50.204Z,37.80
2019-02-08T04:33:19.151Z,39.00
2019-02-08T04:35:47.963Z,34.58
2019-02-08T04:38:18.465Z,36.77
2019-02-08T04:40:47.678Z,48.15
2019-02-08T04:43:16.675Z,39.35
2019-02-08T04:45:45.508Z,34.75
2019-02-08T04:48:14.425Z,33.95
2019-02-08T04:50:43.187Z,35.63
2019-02-08T04:53:12.234Z,30.95
2019-02-08T04:55:41.540Z,43.33
2019-02-08T04:58:10.548Z,35.60
2019-02-08T05:00:39.624Z,23.75
2019-02-08T05:03:08.484Z,27.77
2019-02-08T05:05:37.488Z,33.88
2019-02-08T05:08:06.640Z,20.00
2019-02-08T05:10:36.541Z,44.77
2019-02-08T05:13:05.942Z,20.32
2019-02-08T05:15:35.908Z,25.43
2019-02-08T05:18:05.350Z,30.10
2019-02-08T05:20:34.276Z,25.90
2019-02-08T05:23:03.410Z,26.52
2019-02-08T05:25:32.256Z,35.75
2019-02-08T05:28:01.203Z,32.67
2019-02-08T05:30:32.389Z,27.85
2019-02-08T05:33:01.555Z,29.85
2019-02-08T05:35:30.386Z,30.97
2019-02-08T05:38:00.990Z,42.05
2019-02-08T05:40:30.043Z,31.50
2019-02-08T05:42:58.963Z,25.95
2019-02-08T05:45:28.660Z,22.93
2019-02-08T05:47:57.695Z,28.62
2019-02-08T05:50:27.348Z,26.93
2019-02-08T05:52:56.482Z,23.30
2019-02-08T05:55:26.855Z,19.25
2019-02-08T05:57:56.200Z,12.13
2019-02-08T06:00:33.009Z,14.58
2019-02-08T06:03:03.080Z,22.93
2019-02-08T06:05:32.114Z,37.13
2019-02-08T06:08:00.966Z,29.50
2019-02-08T06:10:30.148Z,30.72
2019-02-08T06:13:00.307Z,34.73
2019-02-08T06:15:29.704Z,32.33
2019-02-08T06:17:58.824Z,28.83
2019-02-08T06:20:27.973Z,38.17
2019-02-08T06:22:57.383Z,36.08
2019-02-08T06:25:26.551Z,30.55
2019-02-08T06:27:55.516Z,40.03
2019-02-08T06:30:24.617Z,40.17
2019-02-08T06:32:54.413Z,28.38
2019-02-08T06:35:24.781Z,44.35
2019-02-08T06:37:54.588Z,38.05
2019-02-08T06:40:24.740Z,37.03
2019-02-08T06:42:53.838Z,28.87
2019-02-08T06:45:24.643Z,38.10
2019-02-08T06:47:53.907Z,45.50
2019-02-08T06:50:24.045Z,29.57
2019-02-08T06:52:53.691Z,43.33
2019-02-08T06:55:23.156Z,32.15
2019-02-08T06:58:04.930Z,29.30
2019-02-08T07:00:43.599Z,30.37
2019-02-08T07:03:20.708Z,33.85
2019-02-08T07:05:58.255Z,31.77
2019-02-08T07:08:32.863Z,31.65
2019-02-08T07:11:26.139Z,30.75
2019-02-08T07:14:13.138Z,30.88
2019-02-08T07:16:52.573Z,30.77
2019-02-08T07:19:29.364Z,43.70
2019-02-08T07:22:22.798Z,32.08
2019-02-08T07:25:18.142Z,33.75
2019-02-08T07:27:47.931Z,33.90
2019-02-08T07:30:34.516Z,40.20
2019-02-08T07:33:10.216Z,36.45
2019-02-08T07:36:08.014Z,37.83
2019-02-08T07:39:02.578Z,31.12
2019-02-08T07:41:51.105Z,34.25
2019-02-08T07:44:47.465Z,34.10
2019-02-08T07:47:32.537Z,33.75
2019-02-08T07:50:19.655Z,35.90
2019-02-08T07:53:05.139Z,30.70
2019-02-08T07:55:53.283Z,36.38
2019-02-08T07:58:41.831Z,41.20
2019-02-08T08:01:35.513Z,32.25
2019-02-08T08:04:25.839Z,34.45
2019-02-08T08:07:14.446Z,30.72
2019-02-08T08:10:02.495Z,49.13
2019-02-08T08:12:45.795Z,33.15
2019-02-08T08:15:38.728Z,32.98
2019-02-08T08:18:25.642Z,47.48
2019-02-08T08:21:12.453Z,33.23
2019-02-08T08:23:57.267Z,31.50
2019-02-08T08:26:41.687Z,44.83
2019-02-08T08:29:22.097Z,27.62
2019-02-08T08:31:57.404Z,39.55
2019-02-08T08:34:59.375Z,28.90
2019-02-08T08:38:09.014Z,33.88
2019-02-08T08:41:16.015Z,27.60
2019-02-08T08:44:10.184Z,29.48
2019-02-08T08:47:08.969Z,25.60
2019-02-08T08:50:10.115Z,32.40
2019-02-08T08:53:04.094Z,30.60
2019-02-08T08:56:02.865Z,28.77
2019-02-08T08:59:06.215Z,37.73
2019-02-08T09:02:19.134Z,36.63
2019-02-08T09:05:40.227Z,31.33
2019-02-08T09:08:45.288Z,39.47
2019-02-08T09:11:44.234Z,36.20
2019-02-08T09:15:00.431Z,37.13
2019-02-08T09:17:33.701Z,38.43
2019-02-08T09:20:40.532Z,35.40
2019-02-08T09:23:46.904Z,33.27
2019-02-08T09:26:58.898Z,37.03
2019-02-08T09:30:04.949Z,34.20
2019-02-08T09:33:07.087Z,38.57
2019-02-08T09:36:25.619Z,35.00
2019-02-08T09:39:39.660Z,34.23
2019-02-08T09:42:36.001Z,37.90
2019-02-08T09:46:00.427Z,35.03
2019-02-08T09:49:09.932Z,34.37
2019-02-08T09:52:16.778Z,29.60
2019-02-08T09:55:22.005Z,32.10
2019-02-08T09:58:37.550Z,33.00
2019-02-08T10:01:44.203Z,37.70
2019-02-08T10:05:16.080Z,46.33
2019-02-08T10:08:38.114Z,37.03
2019-02-08T10:11:39.151Z,43.33
2019-02-08T10:14:36.228Z,31.77
2019-02-08T10:17:48.273Z,39.27
2019-02-08T10:20:57.500Z,32.33
2019-02-08T10:24:16.097Z,30.37
2019-02-08T10:27:35.707Z,26.77
2019-02-08T10:30:57.559Z,27.60
2019-02-08T10:34:06.339Z,26.00
2019-02-08T10:37:11.301Z,26.63
2019-02-08T10:40:34.261Z,25.23
2019-02-08T10:43:43.703Z,25.30
2019-02-08T10:47:01.951Z,24.90
2019-02-08T10:50:06.663Z,27.37
2019-02-08T10:53:15.829Z,25.33
2019-02-08T10:56:26.434Z,25.57
2019-02-08T10:59:31.450Z,25.83
2019-02-08T11:02:52.934Z,25.80
2019-02-08T11:06:02.559Z,24.47
2019-02-08T11:09:14.487Z,26.43
2019-02-08T11:12:30.577Z,26.33
2019-02-08T11:15:36.521Z,28.10
2019-02-08T11:18:57.643Z,27.13
2019-02-08T11:21:26.385Z,26.47
2019-02-08T11:23:55.323Z,26.83
2019-02-08T11:26:24.624Z,26.53
2019-02-08T11:28:53.679Z,25.03
2019-02-08T11:31:22.608Z,26.17
2019-02-08T11:33:51.959Z,24.30
2019-02-08T11:36:20.947Z,24.37
2019-02-08T11:38:49.887Z,28.63
2019-02-08T11:41:18.707Z,32.00
2019-02-08T11:43:47.685Z,25.10
2019-02-08T11:46:16.815Z,26.57
2019-02-08T11:48:45.862Z,27.10
2019-02-08T11:51:14.954Z,25.93
2019-02-08T11:53:44.044Z,26.17
2019-02-08T11:56:13.575Z,27.43
2019-02-08T11:58:42.449Z,26.47
2019-02-08T12:01:11.689Z,26.33
2019-02-08T12:03:41.176Z,26.27
2019-02-08T12:06:10.200Z,25.63
2019-02-08T12:08:40.118Z,25.60
2019-02-08T12:11:09.400Z,26.00
2019-02-08T12:13:38.436Z,29.10
2019-02-08T12:16:07.579Z,26.03
2019-02-08T12:18:36.663Z,26.23
2019-02-08T12:21:05.625Z,26.43
2019-02-08T12:23:34.979Z,36.37
2019-02-08T12:26:03.892Z,27.00
2019-02-08T12:28:33.324Z,28.07
2019-02-08T12:31:02.370Z,30.50
2019-02-08T12:33:31.237Z,77.00
2019-02-08T12:36:00.158Z,37.10
2019-02-08T12:38:29.691Z,27.17
2019-02-08T12:40:58.644Z,25.73
2019-02-08T12:43:27.519Z,29.03
2019-02-08T12:45:56.555Z,26.20
2019-02-08T12:48:25.469Z,27.50
2019-02-08T12:50:55.888Z,27.13
2019-02-08T12:53:24.873Z,26.20
2019-02-08T12:55:53.719Z,26.60
2019-02-08T12:58:22.902Z,26.03
2019-02-08T13:00:51.793Z,27.03
2019-02-08T13:03:20.844Z,38.87
2019-02-08T13:05:49.914Z,30.23
2019-02-08T13:08:18.974Z,28.07
2019-02-08T13:10:48.639Z,27.73
2019-02-08T13:13:17.545Z,28.73
2019-02-08T13:15:46.430Z,27.20
2019-02-08T13:18:15.719Z,27.23
2019-02-08T13:20:44.665Z,26.13
2019-02-08T13:23:13.924Z,25.23
2019-02-08T13:25:43.007Z,26.00
2019-02-08T13:28:11.830Z,25.53
2019-02-08T13:30:41.031Z,26.20
2019-02-08T13:33:09.920Z,26.73
2019-02-08T13:35:38.874Z,25.60
2019-02-08T13:38:07.771Z,27.70
2019-02-08T13:40:37.062Z,27.93
2019-02-08T13:43:05.903Z,26.17
2019-02-08T13:45:34.741Z,32.50
2019-02-08T13:48:04.320Z,33.97
2019-02-08T13:50:33.172Z,33.57
2019-02-08T13:53:02.568Z,32.70
2019-02-08T13:55:31.529Z,38.83
2019-02-08T13:58:00.375Z,38.93
2019-02-08T14:00:35.193Z,39.33
2019-02-08T14:03:04.908Z,39.37
2019-02-08T14:05:35.165Z,37.80
2019-02-08T14:08:09.728Z,40.23
2019-02-08T14:10:38.609Z,38.60
2019-02-08T14:13:07.605Z,38.43
2019-02-08T14:15:36.971Z,37.83
2019-02-08T14:18:06.264Z,34.00
2019-02-08T14:20:35.219Z,38.20
2019-02-08T14:23:04.343Z,35.73
2019-02-08T14:25:33.252Z,38.90
2019-02-08T14:28:02.629Z,41.90
2019-02-08T14:30:33.956Z,40.30
2019-02-08T14:33:03.032Z,36.17
2019-02-08T14:35:32.210Z,43.40
2019-02-08T14:38:02.125Z,38.33
2019-02-08T14:40:31.584Z,37.10
2019-02-08T14:43:00.566Z,40.43
2019-02-08T14:45:30.104Z,44.63
2019-02-08T14:47:59.183Z,43.47
2019-02-08T14:50:28.522Z,42.20
2019-02-08T14:52:57.955Z,39.10
2019-02-08T14:55:27.578Z,41.03
2019-02-08T14:57:57.277Z,45.07
2019-02-08T15:00:27.020Z,42.10
2019-02-08T15:02:55.962Z,47.73
2019-02-08T15:05:25.078Z,42.37
2019-02-08T15:07:54.028Z,40.73
2019-02-08T15:10:29.172Z,35.13
2019-02-08T15:13:00.305Z,43.40
2019-02-08T15:15:29.620Z,38.07
2019-02-08T15:17:58.735Z,41.67
2019-02-08T15:20:29.391Z,47.30
2019-02-08T15:22:58.815Z,58.57
2019-02-08T15:25:28.312Z,48.80
2019-02-08T15:27:57.614Z,41.80
2019-02-08T15:30:30.131Z,41.37
2019-02-08T15:32:59.271Z,42.93
2019-02-08T15:35:28.716Z,34.90
2019-02-08T15:37:58.120Z,38.43
2019-02-08T15:40:33.087Z,37.20
2019-02-08T15:43:04.842Z,34.43
2019-02-08T15:45:34.163Z,43.97
2019-02-08T15:48:03.178Z,30.43
2019-02-08T15:50:32.192Z,46.00
2019-02-08T15:53:01.293Z,36.50
2019-02-08T15:55:32.268Z,41.07
2019-02-08T15:58:01.372Z,38.17
2019-02-08T16:00:30.997Z,30.67
2019-02-08T16:03:00.067Z,45.75
2019-02-08T16:05:30.134Z,34.97
2019-02-08T16:07:59.383Z,39.00
2019-02-08T16:10:28.166Z,36.40
2019-02-08T16:12:57.006Z,31.93
2019-02-08T16:15:27.141Z,29.63
2019-02-08T16:17:56.298Z,43.65
2019-02-08T16:20:26.941Z,34.13
2019-02-08T16:22:56.411Z,38.63
2019-02-08T16:25:27.330Z,44.30
2019-02-08T16:27:56.745Z,41.13
2019-02-08T16:30:27.687Z,27.40
2019-02-08T16:32:56.600Z,31.12
2019-02-08T16:35:26.931Z,29.60
2019-02-08T16:37:56.248Z,36.17
2019-02-08T16:40:26.701Z,35.15
2019-02-08T16:42:55.638Z,33.40
2019-02-08T16:45:29.938Z,37.70
2019-02-08T16:48:00.162Z,33.98
2019-02-08T16:50:30.111Z,34.30
2019-02-08T16:52:59.150Z,31.82
2019-02-08T16:55:28.642Z,37.08
2019-02-08T16:57:58.607Z,36.15
2019-02-08T17:00:32.956Z,41.92
2019-02-08T17:03:03.231Z,33.30
2019-02-08T17:05:33.820Z,48.48
2019-02-08T17:08:03.041Z,36.98
2019-02-08T17:10:32.110Z,44.05
2019-02-08T17:13:00.913Z,36.60
2019-02-08T17:15:30.355Z,43.20
2019-02-08T17:17:59.433Z,34.60
2019-02-08T17:20:34.272Z,42.10
2019-02-08T17:23:04.689Z,39.20
2019-02-08T17:25:34.062Z,41.02
2019-02-08T17:28:03.632Z,31.30
2019-02-08T17:30:33.207Z,38.83
2019-02-08T17:33:03.664Z,34.58
2019-02-08T17:35:32.976Z,37.88
2019-02-08T17:38:05.886Z,36.42
2019-02-08T17:40:37.586Z,44.58
2019-02-08T17:43:11.478Z,41.35
2019-02-08T17:45:42.244Z,42.08
2019-02-08T17:48:13.563Z,50.55
2019-02-08T17:50:42.615Z,40.28
2019-02-08T17:53:11.606Z,28.05
2019-02-08T17:55:40.623Z,35.90
2019-02-08T17:58:09.482Z,34.48
2019-02-08T18:00:46.359Z,31.62
2019-02-08T18:03:15.420Z,35.00
2019-02-08T18:05:44.557Z,34.05
2019-02-08T18:08:13.731Z,42.88
2019-02-08T18:10:42.590Z,39.80
2019-02-08T18:13:12.193Z,41.30
2019-02-08T18:15:41.578Z,49.05
2019-02-08T18:18:12.854Z,49.40
2019-02-08T18:20:43.867Z,37.90
2019-02-08T18:23:12.850Z,40.45
2019-02-08T18:25:42.344Z,41.83
2019-02-08T18:28:11.461Z,37.35
2019-02-08T18:30:40.701Z,46.48
2019-02-08T18:33:09.973Z,47.80
2019-02-08T18:35:38.933Z,32.08
2019-02-08T18:38:08.368Z,41.20
2019-02-08T18:40:37.546Z,40.10
2019-02-08T18:43:06.487Z,32.80
2019-02-08T18:45:35.604Z,39.58
2019-02-08T18:48:05.036Z,40.73
2019-02-08T18:50:36.470Z,56.13
2019-02-08T18:53:05.774Z,36.23
2019-02-08T18:55:34.956Z,40.58
2019-02-08T18:58:04.267Z,34.43
2019-02-08T19:00:39.986Z,41.40
2019-02-08T19:03:09.034Z,46.15
2019-02-08T19:05:37.950Z,41.53
2019-02-08T19:08:07.139Z,44.38
2019-02-08T19:10:38.743Z,35.52
2019-02-08T19:13:07.340Z,40.08
2019-02-08T19:15:36.447Z,37.17
2019-02-08T19:18:05.927Z,52.62
2019-02-08T19:20:34.970Z,34.35
2019-02-08T19:23:04.741Z,36.45
2019-02-08T19:25:35.747Z,31.48
2019-02-08T19:28:05.609Z,42.27
2019-02-08T19:30:36.278Z,28.27
2019-02-08T19:33:06.191Z,22.75
2019-02-08T19:35:35.378Z,35.25
2019-02-08T19:38:05.040Z,33.90
2019-02-08T19:40:35.917Z,30.27
2019-02-08T19:43:05.923Z,25.80
2019-02-08T19:45:34.972Z,40.17
2019-02-08T19:48:04.921Z,26.87
2019-02-08T19:50:40.457Z,20.15
2019-02-08T19:53:09.961Z,36.63
2019-02-08T19:55:39.562Z,25.02
2019-02-08T19:58:09.620Z,34.45
2019-02-08T20:00:39.154Z,24.70
2019-02-08T20:03:08.775Z,36.23
2019-02-08T20:05:38.865Z,22.67
2019-02-08T20:08:08.828Z,40.28
2019-02-08T20:10:39.581Z,29.92
2019-02-08T20:13:08.844Z,23.45
2019-02-08T20:15:37.841Z,25.12
2019-02-08T20:18:07.868Z,26.37
2019-02-08T20:20:36.995Z,27.02
2019-02-08T20:23:07.562Z,27.13
2019-02-08T20:25:36.545Z,34.53
2019-02-08T20:28:05.907Z,29.40
2019-02-08T20:30:35.419Z,28.75
2019-02-08T20:33:04.679Z,29.27
2019-02-08T20:35:33.670Z,27.10
2019-02-08T20:38:03.551Z,28.30
2019-02-08T20:40:37.882Z,23.18
2019-02-08T20:43:08.043Z,27.75
2019-02-08T20:45:37.349Z,27.13
2019-02-08T20:48:09.307Z,42.65
2019-02-08T20:50:38.786Z,28.50
2019-02-08T20:53:08.134Z,30.45
2019-02-08T20:55:37.629Z,28.42
2019-02-08T20:58:10.491Z,24.40
2019-02-08T21:00:40.220Z,25.60
2019-02-08T21:03:14.152Z,27.62
2019-02-08T21:05:48.187Z,21.85
2019-02-08T21:08:18.691Z,19.55
2019-02-08T21:10:48.115Z,24.80
2019-02-08T21:13:17.086Z,20.23
2019-02-08T21:15:47.173Z,32.30
2019-02-08T21:18:15.950Z,20.48
2019-02-08T21:20:46.630Z,21.52
2019-02-08T21:23:16.341Z,20.45
2019-02-08T21:25:51.748Z,19.90
2019-02-08T21:28:16.434Z,32.10
2019-02-08T21:30:45.500Z,19.85
2019-02-08T21:33:14.594Z,20.52
2019-02-08T21:35:43.820Z,24.00
2019-02-08T21:38:12.977Z,24.72
2019-02-08T21:40:41.816Z,19.62
2019-02-08T21:43:11.091Z,15.68
2019-02-08T21:45:41.803Z,20.05
2019-02-08T21:48:11.802Z,21.17
2019-02-08T21:50:41.181Z,17.57
2019-02-08T21:53:10.134Z,18.10
2019-02-08T21:55:40.276Z,21.17
2019-02-08T21:58:09.235Z,19.82
2019-02-08T22:00:39.747Z,15.85
2019-02-08T22:03:09.812Z,21.17
2019-02-08T22:05:44.362Z,16.23
2019-02-08T22:08:13.322Z,26.00
2019-02-08T22:10:42.847Z,18.67
2019-02-08T22:13:12.134Z,17.27
2019-02-08T22:15:41.114Z,18.45
2019-02-08T22:18:10.176Z,27.07
2019-02-08T22:20:39.859Z,17.67
2019-02-08T22:23:09.115Z,17.48
2019-02-08T22:25:38.924Z,17.50
2019-02-08T22:28:08.327Z,16.93
2019-02-08T22:30:37.432Z,18.77
2019-02-08T22:33:07.418Z,18.23
2019-02-08T22:35:36.435Z,18.17
2019-02-08T22:38:06.139Z,19.57
2019-02-08T22:40:35.031Z,17.70
2019-02-08T22:43:04.784Z,19.67
2019-02-08T22:45:35.610Z,23.20
2019-02-08T22:48:05.274Z,18.90
2019-02-08T22:50:34.028Z,24.27
2019-02-08T22:53:03.625Z,22.98
2019-02-08T22:55:32.944Z,20.43
2019-02-08T22:58:03.846Z,19.23
2019-02-08T23:01:22.965Z,22.00
2019-02-08T23:03:52.971Z,19.57
2019-02-08T23:06:21.790Z,20.40
2019-02-08T23:08:50.784Z,20.97
2019-02-08T23:11:19.834Z,24.12
2019-02-08T23:13:48.948Z,20.32
2019-02-08T23:16:17.833Z,20.90
2019-02-08T23:18:46.745Z,19.85
2019-02-08T23:21:15.495Z,20.37
2019-02-08T23:23:44.422Z,21.70
2019-02-08T23:26:13.209Z,19.45
2019-02-08T23:28:42.231Z,19.87
2019-02-08T23:31:11.162Z,20.93
2019-02-08T23:33:40.095Z,20.15
2019-02-08T23:36:09.396Z,21.33
2019-02-08T23:38:38.263Z,21.93
2019-02-08T23:41:07.060Z,21.20
2019-02-08T23:43:35.843Z,21.30
2019-02-08T23:46:05.175Z,20.50
2019-02-08T23:48:34.293Z,22.45
2019-02-08T23:51:03.120Z,22.37
2019-02-08T23:53:31.971Z,21.33
2019-02-08T23:56:00.975Z,23.38
2019-02-08T23:58:30.859Z,24.45
